sensor_id;sensor_type;location;lat;lon;timestamp;temperature;humidity
3792;DHT22;1911;53.768;11.474;2023-09-08T00:02:12;18.10;99.90
3792;DHT22;1911;53.768;11.474;2023-09-08T00:04:38;18.10;99.90
3792;DHT22;1911;53.768;11.474;2023-09-08T00:07:04;18.10;99.90
3792;DHT22;1911;53.768;11.474;2023-09-08T00:09:30;18.10;99.90
3792;DHT22;1911;53.768;11.474;2023-09-08T00:11:55;18.10;99.90
3792;DHT22;1911;53.768;11.474;2023-09-08T00:14:21;18.00;99.90
3792;DHT22;1911;53.768;11.474;2023-09-08T00:16:47;18.00;99.90
3792;DHT22;1911;53.768;11.474;2023-09-08T00:19:14;17.90;99.90
3792;DHT22;1911;53.768;11.474;2023-09-08T00:21:39;17.90;99.90
3792;DHT22;1911;53.768;11.474;2023-09-08T00:24:05;17.90;99.90
3792;DHT22;1911;53.768;11.474;2023-09-08T00:26:31;17.90;99.90
3792;DHT22;1911;53.768;11.474;2023-09-08T00:28:57;17.80;99.90
3792;DHT22;1911;53.768;11.474;2023-09-08T00:31:23;17.80;99.90
3792;DHT22;1911;53.768;11.474;2023-09-08T00:33:48;17.80;99.90
3792;DHT22;1911;53.768;11.474;2023-09-08T00:36:14;17.80;99.90
3792;DHT22;1911;53.768;11.474;2023-09-08T00:38:40;17.80;99.90
3792;DHT22;1911;53.768;11.474;2023-09-08T00:41:06;17.70;99.90
3792;DHT22;1911;53.768;11.474;2023-09-08T00:43:33;17.70;99.90
3792;DHT22;1911;53.768;11.474;2023-09-08T00:45:59;17.70;99.90
3792;DHT22;1911;53.768;11.474;2023-09-08T00:48:26;17.70;99.90
3792;DHT22;1911;53.768;11.474;2023-09-08T00:50:52;17.70;99.90
3792;DHT22;1911;53.768;11.474;2023-09-08T00:53:18;17.60;99.90
3792;DHT22;1911;53.768;11.474;2023-09-08T00:55:45;17.60;99.90
3792;DHT22;1911;53.768;11.474;2023-09-08T00:58:11;17.60;99.90
3792;DHT22;1911;53.768;11.474;2023-09-08T01:00:37;17.60;99.90
3792;DHT22;1911;53.768;11.474;2023-09-08T01:03:03;17.60;99.90
3792;DHT22;1911;53.768;11.474;2023-09-08T01:05:29;17.50;99.90
3792;DHT22;1911;53.768;11.474;2023-09-08T01:07:56;17.50;99.90
3792;DHT22;1911;53.768;11.474;2023-09-08T01:10:23;17.50;99.90
3792;DHT22;1911;53.768;11.474;2023-09-08T01:12:49;17.40;99.90
3792;DHT22;1911;53.768;11.474;2023-09-08T01:15:14;17.40;99.90
3792;DHT22;1911;53.768;11.474;2023-09-08T01:17:40;17.40;99.90
3792;DHT22;1911;53.768;11.474;2023-09-08T01:20:18;17.40;99.90
3792;DHT22;1911;53.768;11.474;2023-09-08T01:23:01;17.40;99.90
3792;DHT22;1911;53.768;11.474;2023-09-08T01:25:30;17.30;99.90
3792;DHT22;1911;53.768;11.474;2023-09-08T01:27:59;17.30;99.90
3792;DHT22;1911;53.768;11.474;2023-09-08T01:30:28;17.30;99.90
3792;DHT22;1911;53.768;11.474;2023-09-08T01:32:54;17.20;99.90
3792;DHT22;1911;53.768;11.474;2023-09-08T01:35:21;17.20;99.90
3792;DHT22;1911;53.768;11.474;2023-09-08T01:37:48;17.10;99.90
3792;DHT22;1911;53.768;11.474;2023-09-08T01:40:14;17.10;99.90
3792;DHT22;1911;53.768;11.474;2023-09-08T01:42:40;17.00;99.90
3792;DHT22;1911;53.768;11.474;2023-09-08T01:45:07;17.00;99.90
3792;DHT22;1911;53.768;11.474;2023-09-08T01:47:33;17.00;99.90
3792;DHT22;1911;53.768;11.474;2023-09-08T01:49:59;17.00;99.90
3792;DHT22;1911;53.768;11.474;2023-09-08T01:52:25;16.90;99.90
3792;DHT22;1911;53.768;11.474;2023-09-08T01:54:51;16.90;99.90
3792;DHT22;1911;53.768;11.474;2023-09-08T01:57:17;16.80;99.90
3792;DHT22;1911;53.768;11.474;2023-09-08T01:59:43;16.80;99.90
3792;DHT22;1911;53.768;11.474;2023-09-08T02:02:10;16.80;99.90
3792;DHT22;1911;53.768;11.474;2023-09-08T02:04:36;16.80;99.90
3792;DHT22;1911;53.768;11.474;2023-09-08T02:07:01;16.80;99.90
3792;DHT22;1911;53.768;11.474;2023-09-08T02:09:36;16.80;99.90
3792;DHT22;1911;53.768;11.474;2023-09-08T02:12:03;16.70;99.90
3792;DHT22;1911;53.768;11.474;2023-09-08T02:14:29;16.70;99.90
3792;DHT22;1911;53.768;11.474;2023-09-08T02:16:55;16.70;99.90
3792;DHT22;1911;53.768;11.474;2023-09-08T02:19:21;16.70;99.90
3792;DHT22;1911;53.768;11.474;2023-09-08T02:21:47;16.60;99.90
3792;DHT22;1911;53.768;11.474;2023-09-08T02:24:12;16.60;99.90
3792;DHT22;1911;53.768;11.474;2023-09-08T02:26:39;16.60;99.90
3792;DHT22;1911;53.768;11.474;2023-09-08T02:29:05;16.50;99.90
3792;DHT22;1911;53.768;11.474;2023-09-08T02:31:30;16.50;99.90
3792;DHT22;1911;53.768;11.474;2023-09-08T02:33:56;16.50;99.90
3792;DHT22;1911;53.768;11.474;2023-09-08T02:36:22;16.50;99.90
3792;DHT22;1911;53.768;11.474;2023-09-08T02:38:54;16.50;99.90
3792;DHT22;1911;53.768;11.474;2023-09-08T02:41:20;16.50;99.90
3792;DHT22;1911;53.768;11.474;2023-09-08T02:43:46;16.40;99.90
3792;DHT22;1911;53.768;11.474;2023-09-08T02:46:11;16.50;99.90
3792;DHT22;1911;53.768;11.474;2023-09-08T02:48:37;16.50;99.90
3792;DHT22;1911;53.768;11.474;2023-09-08T02:51:03;16.40;99.90
3792;DHT22;1911;53.768;11.474;2023-09-08T02:53:29;16.40;99.90
3792;DHT22;1911;53.768;11.474;2023-09-08T02:55:55;16.40;99.90
3792;DHT22;1911;53.768;11.474;2023-09-08T02:58:21;16.40;99.90
3792;DHT22;1911;53.768;11.474;2023-09-08T03:00:46;16.40;99.90
3792;DHT22;1911;53.768;11.474;2023-09-08T03:03:12;16.30;99.90
3792;DHT22;1911;53.768;11.474;2023-09-08T03:05:37;16.30;99.90
3792;DHT22;1911;53.768;11.474;2023-09-08T03:08:03;16.40;99.90
3792;DHT22;1911;53.768;11.474;2023-09-08T03:10:29;16.30;99.90
3792;DHT22;1911;53.768;11.474;2023-09-08T03:12:55;16.30;99.90
3792;DHT22;1911;53.768;11.474;2023-09-08T03:15:20;16.30;99.90
3792;DHT22;1911;53.768;11.474;2023-09-08T03:17:46;16.30;99.90
3792;DHT22;1911;53.768;11.474;2023-09-08T03:20:12;16.30;99.90
3792;DHT22;1911;53.768;11.474;2023-09-08T03:22:39;16.30;99.90
3792;DHT22;1911;53.768;11.474;2023-09-08T03:25:05;16.30;99.90
3792;DHT22;1911;53.768;11.474;2023-09-08T03:27:31;16.30;99.90
3792;DHT22;1911;53.768;11.474;2023-09-08T03:29:56;16.30;99.90
3792;DHT22;1911;53.768;11.474;2023-09-08T03:32:22;16.30;99.90
3792;DHT22;1911;53.768;11.474;2023-09-08T03:34:47;16.20;99.90
3792;DHT22;1911;53.768;11.474;2023-09-08T03:37:13;16.20;99.90
3792;DHT22;1911;53.768;11.474;2023-09-08T03:39:40;16.20;99.90
3792;DHT22;1911;53.768;11.474;2023-09-08T03:42:06;16.20;99.90
3792;DHT22;1911;53.768;11.474;2023-09-08T03:44:31;16.20;99.90
3792;DHT22;1911;53.768;11.474;2023-09-08T03:46:57;16.20;99.90
3792;DHT22;1911;53.768;11.474;2023-09-08T03:49:22;16.10;99.90
3792;DHT22;1911;53.768;11.474;2023-09-08T03:51:48;16.00;99.90
3792;DHT22;1911;53.768;11.474;2023-09-08T03:54:14;16.00;99.90
3792;DHT22;1911;53.768;11.474;2023-09-08T03:56:39;16.00;99.90
3792;DHT22;1911;53.768;11.474;2023-09-08T03:59:05;16.00;99.90
3792;DHT22;1911;53.768;11.474;2023-09-08T04:01:30;16.00;99.90
3792;DHT22;1911;53.768;11.474;2023-09-08T04:03:56;16.00;99.90
3792;DHT22;1911;53.768;11.474;2023-09-08T04:06:21;15.90;99.90
3792;DHT22;1911;53.768;11.474;2023-09-08T04:08:47;15.90;99.90
3792;DHT22;1911;53.768;11.474;2023-09-08T04:11:12;16.00;99.90
3792;DHT22;1911;53.768;11.474;2023-09-08T04:13:38;16.00;99.90
3792;DHT22;1911;53.768;11.474;2023-09-08T04:16:03;16.00;99.90
3792;DHT22;1911;53.768;11.474;2023-09-08T04:18:29;15.90;99.90
3792;DHT22;1911;53.768;11.474;2023-09-08T04:20:55;15.90;99.90
3792;DHT22;1911;53.768;11.474;2023-09-08T04:23:20;15.90;99.90
3792;DHT22;1911;53.768;11.474;2023-09-08T04:25:46;15.90;99.90
3792;DHT22;1911;53.768;11.474;2023-09-08T04:28:11;15.80;99.90
3792;DHT22;1911;53.768;11.474;2023-09-08T04:30:37;15.90;99.90
3792;DHT22;1911;53.768;11.474;2023-09-08T04:33:02;15.80;99.90
3792;DHT22;1911;53.768;11.474;2023-09-08T04:35:28;15.90;99.90
3792;DHT22;1911;53.768;11.474;2023-09-08T04:37:54;15.80;99.90
3792;DHT22;1911;53.768;11.474;2023-09-08T04:40:19;15.80;99.90
3792;DHT22;1911;53.768;11.474;2023-09-08T04:42:45;15.80;99.90
3792;DHT22;1911;53.768;11.474;2023-09-08T04:45:10;15.80;99.90
3792;DHT22;1911;53.768;11.474;2023-09-08T04:47:36;15.80;99.90
3792;DHT22;1911;53.768;11.474;2023-09-08T04:50:02;15.90;99.90
3792;DHT22;1911;53.768;11.474;2023-09-08T04:52:29;15.90;99.90
3792;DHT22;1911;53.768;11.474;2023-09-08T04:54:54;15.90;99.90
3792;DHT22;1911;53.768;11.474;2023-09-08T04:57:20;16.00;99.90
3792;DHT22;1911;53.768;11.474;2023-09-08T04:59:45;16.00;99.90
3792;DHT22;1911;53.768;11.474;2023-09-08T05:02:11;16.00;99.90
3792;DHT22;1911;53.768;11.474;2023-09-08T05:04:37;16.00;99.90
3792;DHT22;1911;53.768;11.474;2023-09-08T05:07:02;16.00;99.90
3792;DHT22;1911;53.768;11.474;2023-09-08T05:09:28;16.00;99.90
3792;DHT22;1911;53.768;11.474;2023-09-08T05:11:54;16.00;99.90
3792;DHT22;1911;53.768;11.474;2023-09-08T05:14:19;16.10;99.90
3792;DHT22;1911;53.768;11.474;2023-09-08T05:16:45;16.10;99.90
3792;DHT22;1911;53.768;11.474;2023-09-08T05:19:12;16.20;99.90
3792;DHT22;1911;53.768;11.474;2023-09-08T05:21:40;16.20;99.90
3792;DHT22;1911;53.768;11.474;2023-09-08T05:24:07;16.30;99.90
3792;DHT22;1911;53.768;11.474;2023-09-08T05:26:35;16.30;99.90
3792;DHT22;1911;53.768;11.474;2023-09-08T05:29:01;16.40;99.90
3792;DHT22;1911;53.768;11.474;2023-09-08T05:31:27;16.40;99.90
3792;DHT22;1911;53.768;11.474;2023-09-08T05:33:52;16.40;99.90
3792;DHT22;1911;53.768;11.474;2023-09-08T05:36:18;16.40;99.90
3792;DHT22;1911;53.768;11.474;2023-09-08T05:38:44;16.50;99.90
3792;DHT22;1911;53.768;11.474;2023-09-08T05:41:09;16.80;99.90
3792;DHT22;1911;53.768;11.474;2023-09-08T05:43:35;16.90;99.90
3792;DHT22;1911;53.768;11.474;2023-09-08T05:46:00;17.10;99.90
3792;DHT22;1911;53.768;11.474;2023-09-08T05:48:26;17.40;99.90
3792;DHT22;1911;53.768;11.474;2023-09-08T05:50:51;17.70;99.90
3792;DHT22;1911;53.768;11.474;2023-09-08T05:53:17;17.70;99.90
3792;DHT22;1911;53.768;11.474;2023-09-08T05:55:42;17.60;99.90
3792;DHT22;1911;53.768;11.474;2023-09-08T05:58:08;17.50;99.90
3792;DHT22;1911;53.768;11.474;2023-09-08T06:00:34;17.50;99.90
3792;DHT22;1911;53.768;11.474;2023-09-08T06:02:59;17.50;99.90
3792;DHT22;1911;53.768;11.474;2023-09-08T06:05:25;17.70;99.90
3792;DHT22;1911;53.768;11.474;2023-09-08T06:07:50;18.00;99.90
3792;DHT22;1911;53.768;11.474;2023-09-08T06:10:16;18.50;99.90
3792;DHT22;1911;53.768;11.474;2023-09-08T06:12:41;18.90;99.90
3792;DHT22;1911;53.768;11.474;2023-09-08T06:15:08;19.90;99.90
3792;DHT22;1911;53.768;11.474;2023-09-08T06:17:34;21.80;99.90
3792;DHT22;1911;53.768;11.474;2023-09-08T06:19:59;24.20;36.80
3792;DHT22;1911;53.768;11.474;2023-09-08T06:22:25;26.40;99.90
3792;DHT22;1911;53.768;11.474;2023-09-08T06:24:51;28.10;1.00
3792;DHT22;1911;53.768;11.474;2023-09-08T06:27:16;29.50;99.90
3792;DHT22;1911;53.768;11.474;2023-09-08T06:29:42;30.50;1.00
3792;DHT22;1911;53.768;11.474;2023-09-08T06:32:09;31.30;1.00
3792;DHT22;1911;53.768;11.474;2023-09-08T06:34:35;32.00;1.00
3792;DHT22;1911;53.768;11.474;2023-09-08T06:37:01;32.50;1.00
3792;DHT22;1911;53.768;11.474;2023-09-08T06:39:27;32.80;1.00
3792;DHT22;1911;53.768;11.474;2023-09-08T06:41:53;33.10;1.00
3792;DHT22;1911;53.768;11.474;2023-09-08T06:44:22;33.30;1.00
3792;DHT22;1911;53.768;11.474;2023-09-08T06:46:48;33.50;1.00
3792;DHT22;1911;53.768;11.474;2023-09-08T06:49:13;33.70;1.00
3792;DHT22;1911;53.768;11.474;2023-09-08T06:51:39;33.70;1.00
3792;DHT22;1911;53.768;11.474;2023-09-08T06:54:05;33.70;1.00
3792;DHT22;1911;53.768;11.474;2023-09-08T06:56:31;33.70;1.00
3792;DHT22;1911;53.768;11.474;2023-09-08T06:58:56;33.60;99.90
3792;DHT22;1911;53.768;11.474;2023-09-08T07:01:24;33.50;99.90
3792;DHT22;1911;53.768;11.474;2023-09-08T07:03:49;33.70;99.90
3792;DHT22;1911;53.768;11.474;2023-09-08T07:06:15;33.70;99.90
3792;DHT22;1911;53.768;11.474;2023-09-08T07:08:41;33.80;99.90
3792;DHT22;1911;53.768;11.474;2023-09-08T07:11:06;34.30;99.90
3792;DHT22;1911;53.768;11.474;2023-09-08T07:13:32;34.60;99.90
3792;DHT22;1911;53.768;11.474;2023-09-08T07:15:58;34.60;99.90
3792;DHT22;1911;53.768;11.474;2023-09-08T07:18:24;34.90;99.90
3792;DHT22;1911;53.768;11.474;2023-09-08T07:20:49;35.00;99.90
3792;DHT22;1911;53.768;11.474;2023-09-08T07:23:16;35.10;99.90
3792;DHT22;1911;53.768;11.474;2023-09-08T07:25:47;35.30;99.90
3792;DHT22;1911;53.768;11.474;2023-09-08T07:28:13;35.40;99.90
3792;DHT22;1911;53.768;11.474;2023-09-08T07:30:39;35.30;99.90
3792;DHT22;1911;53.768;11.474;2023-09-08T07:33:04;35.30;99.90
3792;DHT22;1911;53.768;11.474;2023-09-08T07:35:31;35.40;99.90
3792;DHT22;1911;53.768;11.474;2023-09-08T07:37:56;35.50;99.90
3792;DHT22;1911;53.768;11.474;2023-09-08T07:40:22;35.50;99.90
3792;DHT22;1911;53.768;11.474;2023-09-08T07:42:48;35.00;99.90
3792;DHT22;1911;53.768;11.474;2023-09-08T07:45:13;34.60;99.90
3792;DHT22;1911;53.768;11.474;2023-09-08T07:47:39;34.40;99.90
3792;DHT22;1911;53.768;11.474;2023-09-08T07:50:26;34.50;99.90
3792;DHT22;1911;53.768;11.474;2023-09-08T07:52:54;34.50;99.90
3792;DHT22;1911;53.768;11.474;2023-09-08T07:55:21;34.50;99.90
3792;DHT22;1911;53.768;11.474;2023-09-08T07:57:53;34.50;99.90
3792;DHT22;1911;53.768;11.474;2023-09-08T08:00:19;34.30;99.90
3792;DHT22;1911;53.768;11.474;2023-09-08T08:02:50;34.20;99.90
3792;DHT22;1911;53.768;11.474;2023-09-08T08:05:16;34.40;99.90
3792;DHT22;1911;53.768;11.474;2023-09-08T08:07:42;34.40;99.90
3792;DHT22;1911;53.768;11.474;2023-09-08T08:10:09;34.50;99.90
3792;DHT22;1911;53.768;11.474;2023-09-08T08:12:35;34.40;99.90
3792;DHT22;1911;53.768;11.474;2023-09-08T08:15:01;34.20;99.90
3792;DHT22;1911;53.768;11.474;2023-09-08T08:17:27;34.30;99.90
3792;DHT22;1911;53.768;11.474;2023-09-08T08:19:55;34.20;99.90
3792;DHT22;1911;53.768;11.474;2023-09-08T08:22:20;34.20;99.90
3792;DHT22;1911;53.768;11.474;2023-09-08T08:24:46;34.30;99.90
3792;DHT22;1911;53.768;11.474;2023-09-08T08:27:12;34.70;99.90
3792;DHT22;1911;53.768;11.474;2023-09-08T08:29:38;34.40;99.90
3792;DHT22;1911;53.768;11.474;2023-09-08T08:32:04;34.00;99.90
3792;DHT22;1911;53.768;11.474;2023-09-08T08:34:30;34.20;99.90
3792;DHT22;1911;53.768;11.474;2023-09-08T08:36:56;34.50;99.90
3792;DHT22;1911;53.768;11.474;2023-09-08T08:39:21;34.50;99.90
3792;DHT22;1911;53.768;11.474;2023-09-08T08:41:47;34.40;99.90
3792;DHT22;1911;53.768;11.474;2023-09-08T08:44:13;34.50;99.90
3792;DHT22;1911;53.768;11.474;2023-09-08T08:46:41;34.40;99.90
3792;DHT22;1911;53.768;11.474;2023-09-08T08:49:09;34.30;99.90
3792;DHT22;1911;53.768;11.474;2023-09-08T08:51:36;34.20;99.90
3792;DHT22;1911;53.768;11.474;2023-09-08T08:54:04;34.00;99.90
3792;DHT22;1911;53.768;11.474;2023-09-08T08:56:33;34.00;99.90
3792;DHT22;1911;53.768;11.474;2023-09-08T08:59:01;34.20;99.90
3792;DHT22;1911;53.768;11.474;2023-09-08T09:01:27;34.10;99.90
3792;DHT22;1911;53.768;11.474;2023-09-08T09:03:54;33.90;99.90
3792;DHT22;1911;53.768;11.474;2023-09-08T09:06:20;33.70;99.90
3792;DHT22;1911;53.768;11.474;2023-09-08T09:08:46;33.70;99.90
3792;DHT22;1911;53.768;11.474;2023-09-08T09:11:12;33.40;99.90
3792;DHT22;1911;53.768;11.474;2023-09-08T09:13:38;33.00;99.90
3792;DHT22;1911;53.768;11.474;2023-09-08T09:16:13;32.70;99.90
3792;DHT22;1911;53.768;11.474;2023-09-08T09:18:59;32.70;99.90
3792;DHT22;1911;53.768;11.474;2023-09-08T09:21:41;32.60;99.90
3792;DHT22;1911;53.768;11.474;2023-09-08T09:24:07;32.50;99.90
3792;DHT22;1911;53.768;11.474;2023-09-08T09:26:33;32.40;99.90
3792;DHT22;1911;53.768;11.474;2023-09-08T09:28:58;32.20;99.90
3792;DHT22;1911;53.768;11.474;2023-09-08T09:31:25;32.10;99.90
3792;DHT22;1911;53.768;11.474;2023-09-08T09:34:04;31.80;99.90
3792;DHT22;1911;53.768;11.474;2023-09-08T09:36:30;31.20;99.90
3792;DHT22;1911;53.768;11.474;2023-09-08T09:39:02;30.70;99.90
3792;DHT22;1911;53.768;11.474;2023-09-08T09:41:28;30.00;99.90
3792;DHT22;1911;53.768;11.474;2023-09-08T09:43:57;29.50;99.90
3792;DHT22;1911;53.768;11.474;2023-09-08T09:46:23;29.30;99.90
3792;DHT22;1911;53.768;11.474;2023-09-08T09:48:54;29.00;99.90
3792;DHT22;1911;53.768;11.474;2023-09-08T09:51:22;28.80;1.00
3792;DHT22;1911;53.768;11.474;2023-09-08T09:53:49;28.40;1.00
3792;DHT22;1911;53.768;11.474;2023-09-08T09:56:17;28.20;1.00
3792;DHT22;1911;53.768;11.474;2023-09-08T09:58:44;28.10;1.00
3792;DHT22;1911;53.768;11.474;2023-09-08T10:01:11;28.10;1.00
3792;DHT22;1911;53.768;11.474;2023-09-08T10:03:39;27.90;1.00
3792;DHT22;1911;53.768;11.474;2023-09-08T10:06:05;27.80;1.00
3792;DHT22;1911;53.768;11.474;2023-09-08T10:08:34;27.80;1.00
3792;DHT22;1911;53.768;11.474;2023-09-08T10:11:07;27.80;1.00
3792;DHT22;1911;53.768;11.474;2023-09-08T10:13:39;27.90;1.00
3792;DHT22;1911;53.768;11.474;2023-09-08T10:16:06;27.90;1.00
3792;DHT22;1911;53.768;11.474;2023-09-08T10:18:33;27.80;1.00
3792;DHT22;1911;53.768;11.474;2023-09-08T10:21:03;27.90;1.00
3792;DHT22;1911;53.768;11.474;2023-09-08T10:23:34;27.90;1.00
3792;DHT22;1911;53.768;11.474;2023-09-08T10:26:03;27.90;1.00
3792;DHT22;1911;53.768;11.474;2023-09-08T10:28:31;28.10;1.00
3792;DHT22;1911;53.768;11.474;2023-09-08T10:30:57;28.20;1.00
3792;DHT22;1911;53.768;11.474;2023-09-08T10:33:23;28.30;1.00
3792;DHT22;1911;53.768;11.474;2023-09-08T10:35:50;28.40;1.00
3792;DHT22;1911;53.768;11.474;2023-09-08T10:40:52;28.30;1.00
3792;DHT22;1911;53.768;11.474;2023-09-08T10:43:19;28.50;1.00
3792;DHT22;1911;53.768;11.474;2023-09-08T10:45:46;28.60;1.00
3792;DHT22;1911;53.768;11.474;2023-09-08T10:48:12;28.80;1.00
3792;DHT22;1911;53.768;11.474;2023-09-08T10:50:40;28.90;1.00
3792;DHT22;1911;53.768;11.474;2023-09-08T10:53:17;28.90;1.00
3792;DHT22;1911;53.768;11.474;2023-09-08T10:55:48;28.90;1.00
3792;DHT22;1911;53.768;11.474;2023-09-08T10:58:32;29.10;1.00
3792;DHT22;1911;53.768;11.474;2023-09-08T11:01:00;29.30;1.00
3792;DHT22;1911;53.768;11.474;2023-09-08T11:03:28;29.60;99.90
3792;DHT22;1911;53.768;11.474;2023-09-08T11:05:54;29.90;99.90
3792;DHT22;1911;53.768;11.474;2023-09-08T11:08:21;30.00;99.90
3792;DHT22;1911;53.768;11.474;2023-09-08T11:10:47;30.10;99.90
3792;DHT22;1911;53.768;11.474;2023-09-08T11:13:12;30.00;99.90
3792;DHT22;1911;53.768;11.474;2023-09-08T11:15:38;30.00;99.90
3792;DHT22;1911;53.768;11.474;2023-09-08T11:18:06;30.00;1.00
3792;DHT22;1911;53.768;11.474;2023-09-08T11:20:34;30.10;1.00
3792;DHT22;1911;53.768;11.474;2023-09-08T11:22:59;30.10;1.00
3792;DHT22;1911;53.768;11.474;2023-09-08T11:25:25;30.20;99.90
3792;DHT22;1911;53.768;11.474;2023-09-08T11:27:51;30.20;99.90
3792;DHT22;1911;53.768;11.474;2023-09-08T11:30:17;30.20;99.90
3792;DHT22;1911;53.768;11.474;2023-09-08T11:32:43;30.20;1.00
3792;DHT22;1911;53.768;11.474;2023-09-08T11:35:09;30.10;99.90
3792;DHT22;1911;53.768;11.474;2023-09-08T11:37:39;30.20;99.90
3792;DHT22;1911;53.768;11.474;2023-09-08T11:40:06;30.30;99.90
3792;DHT22;1911;53.768;11.474;2023-09-08T11:42:38;30.40;1.00
3792;DHT22;1911;53.768;11.474;2023-09-08T11:45:10;30.30;1.00
3792;DHT22;1911;53.768;11.474;2023-09-08T11:47:42;30.30;99.90
3792;DHT22;1911;53.768;11.474;2023-09-08T11:50:12;30.30;99.90
3792;DHT22;1911;53.768;11.474;2023-09-08T11:52:43;30.30;99.90
3792;DHT22;1911;53.768;11.474;2023-09-08T11:55:09;30.30;99.90
3792;DHT22;1911;53.768;11.474;2023-09-08T11:57:35;30.30;99.90
3792;DHT22;1911;53.768;11.474;2023-09-08T12:00:02;30.40;99.90
3792;DHT22;1911;53.768;11.474;2023-09-08T12:02:37;30.50;99.90
3792;DHT22;1911;53.768;11.474;2023-09-08T12:05:03;30.50;99.90
3792;DHT22;1911;53.768;11.474;2023-09-08T12:07:29;30.60;99.90
3792;DHT22;1911;53.768;11.474;2023-09-08T12:09:55;30.60;99.90
3792;DHT22;1911;53.768;11.474;2023-09-08T12:12:21;30.80;99.90
3792;DHT22;1911;53.768;11.474;2023-09-08T12:14:46;30.90;99.90
3792;DHT22;1911;53.768;11.474;2023-09-08T12:17:12;31.10;99.90
3792;DHT22;1911;53.768;11.474;2023-09-08T12:19:42;31.00;99.90
3792;DHT22;1911;53.768;11.474;2023-09-08T12:22:08;31.00;99.90
3792;DHT22;1911;53.768;11.474;2023-09-08T12:27:21;31.10;99.90
3792;DHT22;1911;53.768;11.474;2023-09-08T12:32:23;30.70;99.90
3792;DHT22;1911;53.768;11.474;2023-09-08T12:34:50;30.50;99.90
3792;DHT22;1911;53.768;11.474;2023-09-08T12:37:20;30.30;99.90
3792;DHT22;1911;53.768;11.474;2023-09-08T12:39:46;30.10;99.90
3792;DHT22;1911;53.768;11.474;2023-09-08T12:42:11;29.90;1.00
3792;DHT22;1911;53.768;11.474;2023-09-08T12:44:37;29.70;99.90
3792;DHT22;1911;53.768;11.474;2023-09-08T12:47:03;29.40;99.90
3792;DHT22;1911;53.768;11.474;2023-09-08T12:49:29;29.20;99.90
3792;DHT22;1911;53.768;11.474;2023-09-08T12:51:54;29.00;99.90
3792;DHT22;1911;53.768;11.474;2023-09-08T12:54:20;28.90;99.90
3792;DHT22;1911;53.768;11.474;2023-09-08T12:56:45;28.70;99.90
3792;DHT22;1911;53.768;11.474;2023-09-08T12:59:11;28.50;99.90
3792;DHT22;1911;53.768;11.474;2023-09-08T13:01:37;28.40;99.90
3792;DHT22;1911;53.768;11.474;2023-09-08T13:04:02;28.30;99.90
3792;DHT22;1911;53.768;11.474;2023-09-08T13:06:28;28.30;99.90
3792;DHT22;1911;53.768;11.474;2023-09-08T13:08:53;28.20;99.90
3792;DHT22;1911;53.768;11.474;2023-09-08T13:11:19;28.10;99.90
3792;DHT22;1911;53.768;11.474;2023-09-08T13:13:45;28.10;99.90
3792;DHT22;1911;53.768;11.474;2023-09-08T13:16:10;28.00;99.90
3792;DHT22;1911;53.768;11.474;2023-09-08T13:18:36;27.90;99.90
3792;DHT22;1911;53.768;11.474;2023-09-08T13:21:04;27.90;99.90
3792;DHT22;1911;53.768;11.474;2023-09-08T13:23:30;27.90;99.90
3792;DHT22;1911;53.768;11.474;2023-09-08T13:25:55;27.90;99.90
3792;DHT22;1911;53.768;11.474;2023-09-08T13:28:21;27.90;99.90
3792;DHT22;1911;53.768;11.474;2023-09-08T13:30:46;27.80;99.90
3792;DHT22;1911;53.768;11.474;2023-09-08T13:33:12;27.80;99.90
3792;DHT22;1911;53.768;11.474;2023-09-08T13:35:37;27.80;99.90
3792;DHT22;1911;53.768;11.474;2023-09-08T13:38:04;27.60;99.90
3792;DHT22;1911;53.768;11.474;2023-09-08T13:40:30;27.60;99.90
3792;DHT22;1911;53.768;11.474;2023-09-08T13:42:55;27.50;99.90
3792;DHT22;1911;53.768;11.474;2023-09-08T13:45:21;27.50;99.90
3792;DHT22;1911;53.768;11.474;2023-09-08T13:47:46;27.50;99.90
3792;DHT22;1911;53.768;11.474;2023-09-08T13:50:12;27.50;99.90
3792;DHT22;1911;53.768;11.474;2023-09-08T13:52:37;27.50;99.90
3792;DHT22;1911;53.768;11.474;2023-09-08T13:55:07;27.50;99.90
3792;DHT22;1911;53.768;11.474;2023-09-08T13:57:33;27.50;1.00
3792;DHT22;1911;53.768;11.474;2023-09-08T13:59:58;27.40;99.90
3792;DHT22;1911;53.768;11.474;2023-09-08T14:02:25;27.50;99.90
3792;DHT22;1911;53.768;11.474;2023-09-08T14:04:51;27.40;99.90
3792;DHT22;1911;53.768;11.474;2023-09-08T14:07:16;27.40;99.90
3792;DHT22;1911;53.768;11.474;2023-09-08T14:09:42;27.40;99.90
3792;DHT22;1911;53.768;11.474;2023-09-08T14:12:07;27.30;99.90
3792;DHT22;1911;53.768;11.474;2023-09-08T14:14:36;27.40;99.90
3792;DHT22;1911;53.768;11.474;2023-09-08T14:17:02;27.30;99.90
3792;DHT22;1911;53.768;11.474;2023-09-08T14:19:28;27.30;99.90
3792;DHT22;1911;53.768;11.474;2023-09-08T14:21:53;27.20;99.90
3792;DHT22;1911;53.768;11.474;2023-09-08T14:24:19;27.20;99.90
3792;DHT22;1911;53.768;11.474;2023-09-08T14:26:44;27.20;99.90
3792;DHT22;1911;53.768;11.474;2023-09-08T14:29:10;27.20;99.90
3792;DHT22;1911;53.768;11.474;2023-09-08T14:31:36;27.20;99.90
3792;DHT22;1911;53.768;11.474;2023-09-08T14:34:03;27.20;99.90
3792;DHT22;1911;53.768;11.474;2023-09-08T14:36:29;27.20;99.90
3792;DHT22;1911;53.768;11.474;2023-09-08T14:38:55;27.20;99.90
3792;DHT22;1911;53.768;11.474;2023-09-08T14:41:21;27.10;99.90
3792;DHT22;1911;53.768;11.474;2023-09-08T14:43:47;27.10;1.00
3792;DHT22;1911;53.768;11.474;2023-09-08T14:46:12;27.00;1.00
3792;DHT22;1911;53.768;11.474;2023-09-08T14:48:38;26.90;99.90
3792;DHT22;1911;53.768;11.474;2023-09-08T14:51:03;26.90;99.90
3792;DHT22;1911;53.768;11.474;2023-09-08T14:53:29;26.80;99.90
3792;DHT22;1911;53.768;11.474;2023-09-08T14:55:57;26.90;99.90
3792;DHT22;1911;53.768;11.474;2023-09-08T14:58:23;26.90;99.90
3792;DHT22;1911;53.768;11.474;2023-09-08T15:00:50;26.80;99.90
3792;DHT22;1911;53.768;11.474;2023-09-08T15:03:15;26.80;99.90
3792;DHT22;1911;53.768;11.474;2023-09-08T15:05:41;26.80;99.90
3792;DHT22;1911;53.768;11.474;2023-09-08T15:08:10;26.80;99.90
3792;DHT22;1911;53.768;11.474;2023-09-08T15:10:37;26.80;99.90
3792;DHT22;1911;53.768;11.474;2023-09-08T15:13:13;26.80;99.90
3792;DHT22;1911;53.768;11.474;2023-09-08T15:15:39;26.90;99.90
3792;DHT22;1911;53.768;11.474;2023-09-08T15:18:05;26.90;99.90
3792;DHT22;1911;53.768;11.474;2023-09-08T15:20:30;26.90;99.90
3792;DHT22;1911;53.768;11.474;2023-09-08T15:22:56;26.90;99.90
3792;DHT22;1911;53.768;11.474;2023-09-08T15:25:21;26.80;99.90
3792;DHT22;1911;53.768;11.474;2023-09-08T15:27:47;26.70;99.90
3792;DHT22;1911;53.768;11.474;2023-09-08T15:30:13;26.70;99.90
3792;DHT22;1911;53.768;11.474;2023-09-08T15:32:39;26.60;99.90
3792;DHT22;1911;53.768;11.474;2023-09-08T15:35:06;26.60;99.90
3792;DHT22;1911;53.768;11.474;2023-09-08T15:37:32;26.60;99.90
3792;DHT22;1911;53.768;11.474;2023-09-08T15:39:58;26.50;99.90
3792;DHT22;1911;53.768;11.474;2023-09-08T15:42:25;26.50;99.90
3792;DHT22;1911;53.768;11.474;2023-09-08T15:44:50;26.50;99.90
3792;DHT22;1911;53.768;11.474;2023-09-08T15:47:16;26.50;99.90
3792;DHT22;1911;53.768;11.474;2023-09-08T15:49:42;26.40;99.90
3792;DHT22;1911;53.768;11.474;2023-09-08T15:52:07;26.40;99.90